YPCC

Cocos (Keeling) Islands Airport

Cocos (Keeling) Islands, Australia
METAR YPCC 181600Z AUTO 14010KT 9999 // SCT015 SCT023 27/24 Q1015
Observed Flight Rules
Nov-18 @ 16:00 UTC (31 minutes ago) Visual Flight Rules
Wind Visibility Clouds
140° at 10 knots 10,000+ meters
  • Scattered at 1,500' AGL
  • Scattered at 2,300' AGL
Temperatures Readings
Current 27°C / 81°F
Dewpoint 24°C / 75°F
Humidity 84%
Altimeter 29.97" Hg
Pressure 1015 hPa
Elevation 3
METAR YPCC 181600Z AUTO 14010KT 9999 // SCT015 SCT023 27/24 Q1015
Observed Flight Rules
Nov-18 @ 16:00 UTC
(31 minutes ago)
VFR
Wind Visibility
140° at 10 knots 10,000+ meters
Clouds
  • Scattered at 1,500' AGL
  • Scattered at 2,300' AGL
Temperature Dewpoint
27°C / 81°F 24°C / 75°F
Humidity Altimeter Pressure
84% 29.97" Hg 1015 hPa